Northeast Iowa Regional Airport
KCCY : now visible

Airfield :











YOU CAN JOIN US ON...

 
LOGIN :

Register | Disclaimer

   EN    FR    IT 

 









Legend :    VFR   Marginal VFR   IFR   Intensive IFR   Very Intensive IFR
Visi :
Ceiling :
>= 8 km
>= 3000ft
5 to 8 km
1000 to 3000 ft
1500m to 5 km
500 to 1000 ft
800 to 1500m
200 to 500 ft
< 800m
< 200 ft
Symbols :   Thunderstorms  Fog  Heavy snow  Heavy precipitations  Wind > 20 kt







- Airport Elevation : 1125 ft


KCCY - Northeast Iowa Regional

CURRENT METAR :
  • 212135Z AUTO 19010G20KT 2SM BR BKN009 OVC014 23/22 A2986 RMK AO2 VIS 1 1/2V3

EXPIRED METARs :
  • 212115Z AUTO 18013G22KT 6SM BR OVC013 23/22 A2986 RMK AO2
  • 212055Z AUTO 18013G21KT 9SM OVC014 23/22 A2987 RMK AO2
  • 212035Z AUTO 19016KT 10SM OVC017 24/22 A2987 RMK AO2
  • 212015Z AUTO 19011G22KT 10SM OVC019 24/22 A2987 RMK AO2
  • 211955Z AUTO 19014KT 10SM OVC020 24/21 A2987 RMK AO2
  • 211935Z AUTO 19015G23KT 10SM BKN019 OVC025 24/21 A2987 RMK AO2
  • 211915Z AUTO 19014G24KT 10SM BKN019 OVC025 24/21 A2987 RMK AO2
  • 211855Z AUTO 20016G22KT 10SM BKN020 OVC025 24/22 A2987 RMK AO2

TAF N/A
No reported NOTAMs for that airfield.



MET'MAP, your aeronautical weather chart ! - Copyright ORBIFLY December 2007 - Disclaimer

ORBIFLY MET'MAP TEAM :

Programming & Development : Alexandra Zaïnal
Concept & Development : Baudouin d'Aumeries
Co-Development & Prog : Marc-Olivier Méhu
Technical & hardware support : Manuel Goepfert

Contact : metmap@orbifly.com




SOURCES & CREDITS :

   NOAA       Earth
Advisory